createdAt,value
2018-10-01T00:00:48.398Z,94.79
2018-10-01T00:03:15.564Z,94.56
2018-10-01T00:05:43.801Z,94.45
2018-10-01T00:08:10.956Z,95.28
2018-10-01T00:10:38.129Z,95.62
2018-10-01T00:13:05.532Z,95.66
2018-10-01T00:15:32.657Z,95.76
2018-10-01T00:18:00.417Z,94.74
2018-10-01T00:20:33.171Z,95.28
2018-10-01T00:23:00.301Z,96.81
2018-10-01T00:25:27.414Z,97.29
2018-10-01T00:27:54.576Z,96.29
2018-10-01T00:30:21.700Z,97.03
2018-10-01T00:32:48.913Z,96.67
2018-10-01T00:35:16.096Z,96.64
2018-10-01T00:37:43.221Z,95.08
2018-10-01T00:40:10.435Z,94.19
2018-10-01T00:42:37.773Z,94.60
2018-10-01T00:45:05.435Z,94.60
2018-10-01T00:47:32.640Z,94.44
2018-10-01T00:49:59.825Z,93.84
2018-10-01T00:52:26.958Z,94.17
2018-10-01T00:54:54.082Z,94.59
2018-10-01T00:57:21.257Z,93.94
2018-10-01T00:59:48.364Z,94.29
2018-10-01T01:02:15.513Z,93.47
2018-10-01T01:04:42.825Z,93.52
2018-10-01T01:07:10.250Z,94.45
2018-10-01T01:09:37.349Z,95.17
2018-10-01T01:12:04.549Z,95.42
2018-10-01T01:14:31.688Z,95.54
2018-10-01T01:16:58.837Z,95.71
2018-10-01T01:19:26.012Z,96.26
2018-10-01T01:21:53.156Z,95.21
2018-10-01T01:24:20.265Z,95.25
2018-10-01T01:26:47.567Z,95.24
2018-10-01T01:29:14.799Z,95.19
2018-10-01T01:31:42.012Z,96.13
2018-10-01T01:34:09.312Z,95.96
2018-10-01T01:36:36.440Z,96.69
2018-10-01T01:39:06.393Z,96.87
2018-10-01T01:41:33.590Z,96.83
2018-10-01T01:44:00.721Z,94.72
2018-10-01T01:46:27.924Z,95.53
2018-10-01T01:48:55.071Z,96.60
2018-10-01T01:51:22.192Z,96.71
2018-10-01T01:53:49.299Z,97.09
2018-10-01T01:56:16.476Z,96.61
2018-10-01T01:58:43.576Z,96.19
2018-10-01T02:01:10.718Z,96.49
2018-10-01T02:03:38.147Z,96.22
2018-10-01T02:06:05.316Z,96.55
2018-10-01T02:08:32.419Z,96.30
2018-10-01T02:10:59.660Z,96.34
2018-10-01T02:13:26.762Z,96.75
2018-10-01T02:15:53.897Z,95.08
2018-10-01T02:18:21.064Z,94.74
2018-10-01T02:20:48.164Z,96.16
2018-10-01T02:23:15.283Z,96.42
2018-10-01T02:25:42.440Z,96.08
2018-10-01T02:28:09.551Z,95.45
2018-10-01T02:30:36.697Z,95.14
2018-10-01T02:33:03.940Z,94.68
2018-10-01T02:35:31.045Z,96.17
2018-10-01T02:37:58.131Z,94.92
2018-10-01T02:40:25.400Z,94.39
2018-10-01T02:42:52.588Z,94.06
2018-10-01T02:45:19.737Z,93.87
2018-10-01T02:47:47.025Z,94.27
2018-10-01T02:50:14.093Z,94.42
2018-10-01T02:52:47.106Z,94.34
2018-10-01T02:55:14.217Z,95.59
2018-10-01T02:57:41.363Z,95.95
2018-10-01T03:00:09.068Z,96.33
2018-10-01T03:02:36.515Z,95.89
2018-10-01T03:05:03.673Z,95.87
2018-10-01T03:07:30.900Z,96.24
2018-10-01T03:09:58.053Z,96.82
2018-10-01T03:12:25.235Z,97.31
2018-10-01T03:14:52.336Z,96.60
2018-10-01T03:17:19.433Z,96.68
2018-10-01T03:19:46.558Z,97.38
2018-10-01T03:22:13.829Z,97.76
2018-10-01T03:24:40.958Z,97.98
2018-10-01T03:27:08.065Z,97.56
2018-10-01T03:29:35.208Z,97.71
2018-10-01T03:32:02.315Z,97.76
2018-10-01T03:34:29.458Z,97.79
2018-10-01T03:36:56.641Z,97.72
2018-10-01T03:39:23.748Z,97.22
2018-10-01T03:41:50.857Z,97.24
2018-10-01T03:44:18.082Z,98.26
2018-10-01T03:46:45.256Z,99.06
2018-10-01T03:49:12.364Z,99.56
2018-10-01T03:51:39.812Z,99.28
2018-10-01T03:54:06.917Z,98.56
2018-10-01T03:56:34.019Z,98.33
2018-10-01T03:59:01.168Z,98.02
2018-10-01T04:01:28.264Z,98.68
2018-10-01T04:03:55.420Z,99.16
2018-10-01T04:06:22.969Z,98.87
2018-10-01T04:08:50.115Z,98.75
2018-10-01T04:11:17.547Z,99.38
2018-10-01T04:13:44.677Z,99.03
2018-10-01T04:16:11.761Z,98.12
2018-10-01T04:18:38.849Z,98.14
2018-10-01T04:21:06.005Z,97.39
2018-10-01T04:23:33.096Z,97.73
2018-10-01T04:26:00.201Z,98.13
2018-10-01T04:28:27.337Z,98.04
2018-10-01T04:30:54.436Z,97.15
2018-10-01T04:33:21.524Z,97.63
2018-10-01T04:35:49.018Z,98.53
2018-10-01T04:38:16.109Z,98.92
2018-10-01T04:40:43.279Z,98.53
2018-10-01T04:43:10.511Z,98.11
2018-10-01T04:45:37.652Z,98.29
2018-10-01T04:48:04.785Z,98.18
2018-10-01T04:50:32.089Z,98.05
2018-10-01T04:52:59.179Z,97.71
2018-10-01T04:55:26.263Z,97.88
2018-10-01T04:57:53.395Z,98.10
2018-10-01T05:00:20.488Z,98.54
2018-10-01T05:02:47.844Z,99.30
2018-10-01T05:05:15.013Z,99.81
2018-10-01T05:07:42.219Z,100.00
2018-10-01T05:10:09.337Z,100.00
2018-10-01T05:12:36.480Z,100.00
2018-10-01T05:15:03.748Z,100.00
2018-10-01T05:17:30.888Z,100.00
2018-10-01T05:19:58.239Z,100.00
2018-10-01T05:22:25.348Z,100.00
2018-10-01T05:24:52.444Z,100.00
2018-10-01T05:27:19.776Z,98.59
2018-10-01T05:29:46.885Z,97.95
2018-10-01T05:32:14.109Z,98.53
2018-10-01T05:34:42.276Z,99.16
2018-10-01T05:37:13.087Z,100.00
2018-10-01T05:39:40.192Z,100.00
2018-10-01T05:42:07.328Z,100.00
2018-10-01T05:44:34.435Z,99.52
2018-10-01T05:47:01.576Z,98.82
2018-10-01T05:49:28.801Z,98.32
2018-10-01T05:51:55.916Z,98.03
2018-10-01T05:54:23.048Z,97.72
2018-10-01T05:56:50.195Z,97.74
2018-10-01T05:59:17.292Z,97.30
2018-10-01T06:01:44.436Z,96.35
2018-10-01T06:04:11.599Z,96.29
2018-10-01T06:06:38.708Z,95.61
2018-10-01T06:09:07.628Z,95.93
2018-10-01T06:11:34.848Z,95.84
2018-10-01T06:14:01.952Z,95.55
2018-10-01T06:16:29.059Z,94.92
2018-10-01T06:18:56.206Z,94.40
2018-10-01T06:21:23.355Z,95.04
2018-10-01T06:23:50.469Z,94.41
2018-10-01T06:26:17.737Z,94.28
2018-10-01T06:28:44.832Z,94.15
2018-10-01T06:31:11.944Z,93.87
2018-10-01T06:33:39.088Z,93.32
2018-10-01T06:36:06.216Z,93.73
2018-10-01T06:38:33.298Z,91.65
2018-10-01T06:41:00.558Z,91.70
2018-10-01T06:43:27.656Z,90.91
2018-10-01T06:45:54.780Z,90.60
2018-10-01T06:48:21.996Z,89.81
2018-10-01T06:50:49.169Z,89.06
2018-10-01T06:53:16.269Z,89.16
2018-10-01T06:55:43.487Z,88.54
2018-10-01T06:58:10.635Z,87.37
2018-10-01T07:00:37.812Z,88.29
2018-10-01T07:03:04.980Z,87.46
2018-10-01T07:05:32.239Z,87.29
2018-10-01T07:07:59.356Z,87.03
2018-10-01T07:10:26.557Z,86.52
2018-10-01T07:12:53.656Z,84.80
2018-10-01T07:15:20.743Z,82.70
2018-10-01T07:17:47.965Z,83.42
2018-10-01T07:20:15.718Z,83.81
2018-10-01T07:22:42.925Z,78.86
2018-10-01T07:25:10.013Z,79.31
2018-10-01T07:27:37.213Z,77.50
2018-10-01T07:30:04.585Z,76.09
2018-10-01T07:32:31.775Z,74.92
2018-10-01T07:34:58.856Z,71.38
2018-10-01T07:37:25.952Z,72.79
2018-10-01T07:39:53.073Z,69.33
2018-10-01T07:42:20.277Z,69.98
2018-10-01T07:44:47.534Z,69.17
2018-10-01T07:47:14.746Z,70.09
2018-10-01T07:49:41.944Z,68.38
2018-10-01T07:52:09.068Z,69.43
2018-10-01T07:54:36.385Z,69.66
2018-10-01T07:57:03.562Z,70.02
2018-10-01T07:59:31.731Z,70.14
2018-10-01T08:01:59.049Z,70.44
2018-10-01T08:04:26.273Z,69.61
2018-10-01T08:06:53.536Z,70.51
2018-10-01T08:09:20.728Z,72.12
2018-10-01T08:11:47.934Z,71.24
2018-10-01T08:14:15.179Z,72.29
2018-10-01T08:16:42.320Z,71.33
2018-10-01T08:19:09.480Z,70.50
2018-10-01T08:21:36.593Z,70.61
2018-10-01T08:24:03.857Z,71.97
2018-10-01T08:26:31.006Z,71.21
2018-10-01T08:28:58.113Z,70.49
2018-10-01T08:31:25.256Z,70.06
2018-10-01T08:33:52.845Z,68.36
2018-10-01T08:36:20.455Z,68.12
2018-10-01T08:38:47.671Z,66.96
2018-10-01T08:41:14.965Z,65.02
2018-10-01T08:43:42.149Z,63.71
2018-10-01T08:46:09.337Z,61.54
2018-10-01T08:48:38.886Z,61.94
2018-10-01T08:51:14.777Z,62.15
2018-10-01T08:53:48.480Z,61.42
2018-10-01T08:56:15.745Z,62.55
2018-10-01T08:58:42.804Z,62.27
2018-10-01T09:01:09.941Z,63.22
2018-10-01T09:03:37.111Z,64.24
2018-10-01T09:06:04.265Z,63.87
2018-10-01T09:08:31.417Z,65.14
2018-10-01T09:10:58.626Z,64.73
2018-10-01T09:13:25.912Z,64.56
2018-10-01T09:15:53.059Z,64.50
2018-10-01T09:18:20.318Z,66.04
2018-10-01T09:20:47.483Z,63.97
2018-10-01T09:23:15.802Z,62.89
2018-10-01T09:25:42.935Z,63.51
2018-10-01T09:28:10.141Z,61.70
2018-10-01T09:30:37.302Z,62.57
2018-10-01T09:33:04.494Z,61.61
2018-10-01T09:35:31.682Z,59.53
2018-10-01T09:37:58.775Z,61.74
2018-10-01T09:40:26.015Z,60.08
2018-10-01T09:42:53.212Z,61.10
2018-10-01T09:45:20.417Z,60.64
2018-10-01T09:47:47.992Z,58.61
2018-10-01T09:50:15.433Z,61.49
2018-10-01T09:52:42.680Z,59.19
2018-10-01T09:55:10.017Z,57.94
2018-10-01T09:57:37.200Z,57.64
2018-10-01T10:00:04.594Z,58.22
2018-10-01T10:02:31.965Z,57.50
2018-10-01T10:04:59.093Z,55.65
2018-10-01T10:07:26.261Z,55.04
2018-10-01T10:09:53.433Z,55.73
2018-10-01T10:12:20.613Z,57.11
2018-10-01T10:14:47.785Z,56.87
2018-10-01T10:17:14.982Z,57.55
2018-10-01T10:19:42.150Z,57.89
2018-10-01T10:22:09.349Z,57.86
2018-10-01T10:24:36.616Z,59.33
2018-10-01T10:27:03.744Z,58.20
2018-10-01T10:29:30.864Z,58.73
2018-10-01T10:31:58.166Z,58.88
2018-10-01T10:34:25.330Z,58.88
2018-10-01T10:36:52.488Z,58.34
2018-10-01T10:39:19.685Z,59.17
2018-10-01T10:41:46.814Z,58.70
2018-10-01T10:44:13.998Z,59.17
2018-10-01T10:46:41.100Z,57.64
2018-10-01T10:49:08.208Z,56.85
2018-10-01T10:51:35.324Z,55.86
2018-10-01T10:54:02.544Z,56.87
2018-10-01T10:56:29.659Z,57.54
2018-10-01T10:58:56.779Z,57.28
2018-10-01T11:01:23.977Z,56.14
2018-10-01T11:03:51.153Z,56.01
2018-10-01T11:06:18.309Z,52.67
2018-10-01T11:08:45.493Z,53.11
2018-10-01T11:11:12.722Z,51.14
2018-10-01T11:13:40.014Z,51.89
2018-10-01T11:16:07.221Z,52.75
2018-10-01T11:18:34.576Z,53.82
2018-10-01T11:21:01.678Z,54.43
2018-10-01T11:23:28.866Z,55.40
2018-10-01T11:25:56.048Z,56.78
2018-10-01T11:28:23.242Z,58.12
2018-10-01T11:30:50.634Z,58.97
2018-10-01T11:33:18.068Z,60.55
2018-10-01T11:35:45.108Z,61.66
2018-10-01T11:38:12.291Z,63.18
2018-10-01T11:40:39.406Z,64.99
2018-10-01T11:43:06.527Z,65.14
2018-10-01T11:45:33.728Z,66.67
2018-10-01T11:48:00.876Z,67.28
2018-10-01T11:50:28.022Z,71.47
2018-10-01T11:52:55.312Z,76.27
2018-10-01T11:55:22.511Z,81.03
2018-10-01T11:57:49.701Z,82.68
2018-10-01T12:00:17.524Z,82.69
2018-10-01T12:02:45.120Z,82.86
2018-10-01T12:05:12.264Z,83.25
2018-10-01T12:07:39.416Z,80.35
2018-10-01T12:10:06.625Z,78.01
2018-10-01T12:12:33.711Z,77.90
2018-10-01T12:15:00.893Z,77.44
2018-10-01T12:17:28.079Z,76.48
2018-10-01T12:20:03.016Z,76.05
2018-10-01T12:22:30.160Z,74.24
2018-10-01T12:24:58.045Z,71.99
2018-10-01T12:27:25.547Z,69.33
2018-10-01T12:29:52.728Z,68.12
2018-10-01T12:32:20.135Z,66.92
2018-10-01T12:34:47.321Z,67.72
2018-10-01T12:37:14.508Z,67.32
2018-10-01T12:39:41.722Z,66.78
2018-10-01T12:42:08.881Z,65.57
2018-10-01T12:44:36.029Z,66.33
2018-10-01T12:47:03.185Z,65.56
2018-10-01T12:49:30.400Z,63.81
2018-10-01T12:51:57.570Z,64.54
2018-10-01T12:54:24.729Z,63.48
2018-10-01T12:56:52.027Z,64.55
2018-10-01T12:59:20.392Z,65.40
2018-10-01T13:01:51.524Z,63.38
2018-10-01T13:04:19.571Z,63.05
2018-10-01T13:06:47.917Z,63.29
2018-10-01T13:09:15.104Z,62.36
2018-10-01T13:11:42.180Z,62.28
2018-10-01T13:14:09.728Z,62.88
2018-10-01T13:16:37.532Z,62.57
2018-10-01T13:19:04.701Z,63.51
2018-10-01T13:21:31.826Z,63.08
2018-10-01T13:23:59.201Z,62.96
2018-10-01T13:26:26.251Z,62.89
2018-10-01T13:28:53.404Z,62.70
2018-10-01T13:31:20.573Z,62.94
2018-10-01T13:33:47.724Z,63.13
2018-10-01T13:36:14.920Z,62.92
2018-10-01T13:38:42.079Z,63.01
2018-10-01T13:41:09.210Z,63.36
2018-10-01T13:43:36.328Z,63.20
2018-10-01T13:46:03.509Z,64.18
2018-10-01T13:48:30.683Z,63.83
2018-10-01T13:50:57.816Z,63.98
2018-10-01T13:53:24.994Z,64.55
2018-10-01T13:55:52.128Z,63.85
2018-10-01T13:58:19.418Z,64.19
2018-10-01T14:00:46.548Z,62.93
2018-10-01T14:03:13.675Z,63.26
2018-10-01T14:05:40.820Z,62.28
2018-10-01T14:08:07.964Z,63.39
2018-10-01T14:10:35.096Z,62.10
2018-10-01T14:13:02.209Z,62.53
2018-10-01T14:15:29.454Z,62.03
2018-10-01T14:17:56.539Z,62.58
2018-10-01T14:20:23.645Z,63.09
2018-10-01T14:22:50.796Z,66.67
2018-10-01T14:25:17.990Z,72.87
2018-10-01T14:27:45.263Z,80.67
2018-10-01T14:30:12.477Z,84.78
2018-10-01T14:32:39.577Z,89.24
2018-10-01T14:35:06.689Z,90.18
2018-10-01T14:37:33.908Z,91.08
2018-10-01T14:40:01.013Z,91.13
2018-10-01T14:42:28.216Z,92.44
2018-10-01T14:44:55.479Z,91.05
2018-10-01T14:47:23.491Z,90.33
2018-10-01T14:49:50.580Z,88.34
2018-10-01T14:52:17.716Z,89.98
2018-10-01T14:54:44.815Z,90.84
2018-10-01T14:57:11.913Z,90.48
2018-10-01T14:59:39.125Z,88.89
2018-10-01T15:02:06.236Z,90.86
2018-10-01T15:04:33.415Z,89.64
2018-10-01T15:07:00.583Z,89.47
2018-10-01T15:09:27.781Z,87.18
2018-10-01T15:11:54.914Z,86.51
2018-10-01T15:14:22.132Z,87.16
2018-10-01T15:16:49.228Z,89.30
2018-10-01T15:19:16.324Z,87.90
2018-10-01T15:21:43.468Z,90.12
2018-10-01T15:24:10.613Z,90.72
2018-10-01T15:26:37.688Z,90.41
2018-10-01T15:29:04.898Z,90.80
2018-10-01T15:31:32.004Z,92.02
2018-10-01T15:33:59.160Z,90.88
2018-10-01T15:36:26.443Z,91.46
2018-10-01T15:38:53.528Z,90.76
2018-10-01T15:41:20.624Z,91.66
2018-10-01T15:43:47.786Z,92.17
2018-10-01T15:46:14.900Z,92.49
2018-10-01T15:48:41.983Z,90.61
2018-10-01T15:51:09.232Z,91.13
2018-10-01T15:53:36.330Z,92.45
2018-10-01T15:56:03.441Z,90.40
2018-10-01T15:58:30.584Z,91.00
2018-10-01T16:00:58.679Z,90.31
2018-10-01T16:03:25.952Z,88.13
2018-10-01T16:05:53.141Z,87.68
2018-10-01T16:08:20.334Z,88.12
2018-10-01T16:10:47.567Z,89.19
2018-10-01T16:13:14.780Z,90.06
2018-10-01T16:15:42.016Z,90.43
2018-10-01T16:18:09.193Z,90.92
2018-10-01T16:20:36.381Z,92.76
2018-10-01T16:23:03.505Z,92.79
2018-10-01T16:25:30.685Z,93.07
2018-10-01T16:27:57.884Z,90.54
2018-10-01T16:30:25.010Z,91.20
2018-10-01T16:32:52.189Z,92.05
2018-10-01T16:35:19.366Z,91.89
2018-10-01T16:37:46.500Z,92.66
2018-10-01T16:40:13.636Z,95.14
2018-10-01T16:42:40.836Z,96.89
2018-10-01T16:45:08.064Z,97.60
2018-10-01T16:47:35.188Z,98.88
2018-10-01T16:50:02.569Z,99.80
2018-10-01T16:52:29.702Z,99.91
2018-10-01T16:54:56.843Z,100.00
2018-10-01T16:57:24.111Z,100.00
2018-10-01T16:59:51.259Z,100.00
2018-10-01T17:02:18.448Z,100.00
2018-10-01T17:04:45.664Z,100.00
2018-10-01T17:07:12.928Z,100.00
2018-10-01T17:09:40.065Z,100.00
2018-10-01T17:12:07.592Z,100.00
2018-10-01T17:14:34.722Z,100.00
2018-10-01T17:17:01.847Z,100.00
2018-10-01T17:19:29.597Z,100.00
2018-10-01T17:21:56.817Z,100.00
2018-10-01T17:24:23.933Z,100.00
2018-10-01T17:26:51.134Z,100.00
2018-10-01T17:29:18.333Z,100.00
2018-10-01T17:31:45.514Z,100.00
2018-10-01T17:34:12.687Z,100.00
2018-10-01T17:36:39.796Z,100.00
2018-10-01T17:39:07.925Z,100.00
2018-10-01T17:41:35.122Z,100.00
2018-10-01T17:44:02.248Z,100.00
2018-10-01T17:46:29.376Z,100.00
2018-10-01T17:48:56.560Z,100.00
2018-10-01T17:51:23.709Z,100.00
2018-10-01T17:53:50.854Z,100.00
2018-10-01T17:56:18.025Z,100.00
2018-10-01T17:58:45.273Z,100.00
2018-10-01T18:01:12.387Z,100.00
2018-10-01T18:03:39.743Z,100.00
2018-10-01T18:06:07.005Z,100.00
2018-10-01T18:08:34.120Z,100.00
2018-10-01T18:11:01.481Z,100.00
2018-10-01T18:13:28.652Z,100.00
2018-10-01T18:15:55.788Z,100.00
2018-10-01T18:18:23.074Z,100.00
2018-10-01T18:20:50.201Z,100.00
2018-10-01T18:23:17.402Z,98.34
2018-10-01T18:25:44.584Z,99.27
2018-10-01T18:28:11.712Z,98.65
2018-10-01T18:30:38.900Z,95.55
2018-10-01T18:33:06.092Z,94.45
2018-10-01T18:35:33.208Z,92.86
2018-10-01T18:38:00.348Z,91.77
2018-10-01T18:40:27.531Z,93.32
2018-10-01T18:42:54.712Z,91.84
2018-10-01T18:45:22.017Z,92.79
2018-10-01T18:47:49.250Z,92.58
2018-10-01T18:50:16.462Z,92.42
2018-10-01T18:52:43.582Z,92.40
2018-10-01T18:55:10.866Z,91.75
2018-10-01T18:57:38.186Z,91.39
2018-10-01T19:00:06.682Z,91.89
2018-10-01T19:02:33.955Z,91.90
2018-10-01T19:05:01.145Z,91.10
2018-10-01T19:07:28.290Z,91.63
2018-10-01T19:09:55.467Z,91.49
2018-10-01T19:12:22.957Z,91.90
2018-10-01T19:14:50.192Z,92.06
2018-10-01T19:17:17.882Z,91.41
2018-10-01T19:19:45.003Z,92.25
2018-10-01T19:22:12.121Z,92.36
2018-10-01T19:24:39.318Z,92.68
2018-10-01T19:27:06.481Z,92.56
2018-10-01T19:29:33.642Z,92.56
2018-10-01T19:32:00.804Z,92.57
2018-10-01T19:34:27.952Z,92.61
2018-10-01T19:36:55.083Z,93.81
2018-10-01T19:39:22.318Z,93.90
2018-10-01T19:41:49.381Z,93.33
2018-10-01T19:44:16.518Z,93.21
2018-10-01T19:46:43.697Z,94.19
2018-10-01T19:49:10.873Z,92.96
2018-10-01T19:51:38.745Z,94.14
2018-10-01T19:54:05.938Z,93.30
2018-10-01T19:56:33.065Z,92.33
2018-10-01T19:59:00.276Z,93.60
2018-10-01T20:01:27.413Z,93.09
2018-10-01T20:03:54.542Z,92.63
2018-10-01T20:06:21.729Z,93.43
2018-10-01T20:08:48.922Z,92.67
2018-10-01T20:11:16.109Z,92.73
2018-10-01T20:13:43.264Z,93.55
2018-10-01T20:16:10.457Z,91.82
2018-10-01T20:18:37.681Z,93.02
2018-10-01T20:21:04.859Z,93.40
2018-10-01T20:23:32.280Z,92.89
2018-10-01T20:25:59.469Z,91.73
2018-10-01T20:28:26.700Z,89.83
2018-10-01T20:30:53.777Z,90.09
2018-10-01T20:33:20.888Z,90.68
2018-10-01T20:35:48.046Z,88.71
2018-10-01T20:38:15.262Z,88.77
2018-10-01T20:40:42.507Z,86.50
2018-10-01T20:43:09.612Z,86.07
2018-10-01T20:45:36.809Z,84.62
2018-10-01T20:48:04.057Z,84.48
2018-10-01T20:50:31.180Z,83.84
2018-10-01T20:52:58.486Z,81.93
2018-10-01T20:55:25.677Z,83.19
2018-10-01T20:57:52.809Z,83.17
2018-10-01T21:00:20.061Z,83.64
2018-10-01T21:02:47.214Z,83.22
2018-10-01T21:05:14.333Z,82.93
2018-10-01T21:07:41.633Z,82.98
2018-10-01T21:10:08.781Z,82.55
2018-10-01T21:12:35.904Z,82.92
2018-10-01T21:15:03.217Z,83.15
2018-10-01T21:17:30.341Z,83.93
2018-10-01T21:19:57.498Z,84.42
2018-10-01T21:22:24.690Z,84.69
2018-10-01T21:24:51.804Z,85.23
2018-10-01T21:27:18.922Z,86.84
2018-10-01T21:29:46.088Z,86.91
2018-10-01T21:32:13.195Z,86.61
2018-10-01T21:34:40.417Z,87.38
2018-10-01T21:37:07.569Z,88.39
2018-10-01T21:39:51.701Z,89.70
2018-10-01T21:42:21.893Z,89.88
2018-10-01T21:44:49.095Z,90.20
2018-10-01T21:47:16.197Z,91.06
2018-10-01T21:49:43.381Z,92.00
2018-10-01T21:52:10.524Z,92.49
2018-10-01T21:54:37.735Z,92.57
2018-10-01T21:57:04.997Z,93.42
2018-10-01T21:59:32.869Z,93.83
2018-10-01T22:02:00.020Z,94.43
2018-10-01T22:04:27.365Z,95.05
2018-10-01T22:06:54.508Z,95.50
2018-10-01T22:09:21.687Z,94.61
2018-10-01T22:12:45.306Z,95.63
2018-10-01T22:15:12.439Z,95.83
2018-10-01T22:17:39.612Z,96.51
2018-10-01T22:20:06.788Z,96.67
2018-10-01T22:22:33.912Z,96.92
2018-10-01T22:25:01.041Z,97.30
2018-10-01T22:27:28.212Z,97.14
2018-10-01T22:29:55.366Z,97.84
2018-10-01T22:32:22.514Z,97.57
2018-10-01T22:34:49.828Z,97.87
2018-10-01T22:37:16.996Z,97.84
2018-10-01T22:39:44.149Z,98.88
2018-10-01T22:42:11.341Z,99.11
2018-10-01T22:44:38.478Z,99.29
2018-10-01T22:47:05.739Z,99.87
2018-10-01T22:49:32.908Z,99.57
2018-10-01T22:52:00.049Z,99.70
2018-10-01T22:54:27.177Z,99.37
2018-10-01T22:56:54.373Z,99.47
2018-10-01T22:59:21.553Z,99.68
2018-10-01T23:01:48.699Z,99.55
2018-10-01T23:04:15.869Z,99.14
2018-10-01T23:06:43.004Z,98.43
2018-10-01T23:09:10.154Z,98.29
2018-10-01T23:11:37.399Z,98.96
2018-10-01T23:14:04.591Z,97.84
2018-10-01T23:16:31.812Z,97.63
2018-10-01T23:18:59.016Z,97.71
2018-10-01T23:21:26.180Z,97.69
2018-10-01T23:23:53.309Z,97.62
2018-10-01T23:26:20.517Z,97.39
2018-10-01T23:28:47.663Z,97.78
2018-10-01T23:31:14.804Z,97.58
2018-10-01T23:33:42.059Z,96.68
2018-10-01T23:36:09.200Z,97.35
2018-10-01T23:38:36.423Z,98.52
2018-10-01T23:41:03.564Z,98.29
2018-10-01T23:43:30.719Z,98.37
2018-10-01T23:45:57.872Z,97.31
2018-10-01T23:48:25.076Z,97.23
2018-10-01T23:50:52.337Z,97.85
2018-10-01T23:53:19.472Z,97.79
2018-10-01T23:55:46.771Z,97.76
2018-10-01T23:58:13.908Z,98.45
